sensor_id;sensor_type;location;lat;lon;timestamp;P1;durP1;ratioP1;P2;durP2;ratioP2
8675;SDS011;4375;52.486;13.424;2023-04-19T00:00:02;20.60;;;4.40;;
8675;SDS011;4375;52.486;13.424;2023-04-19T00:02:32;19.47;;;4.67;;
8675;SDS011;4375;52.486;13.424;2023-04-19T00:04:59;20.23;;;4.20;;
8675;SDS011;4375;52.486;13.424;2023-04-19T00:07:25;22.77;;;4.23;;
8675;SDS011;4375;52.486;13.424;2023-04-19T00:09:51;24.63;;;4.53;;
8675;SDS011;4375;52.486;13.424;2023-04-19T00:12:17;19.00;;;4.33;;
8675;SDS011;4375;52.486;13.424;2023-04-19T00:14:43;20.00;;;4.60;;
8675;SDS011;4375;52.486;13.424;2023-04-19T00:17:09;22.37;;;4.10;;
8675;SDS011;4375;52.486;13.424;2023-04-19T00:19:36;18.87;;;4.43;;
8675;SDS011;4375;52.486;13.424;2023-04-19T00:22:02;21.30;;;4.20;;
8675;SDS011;4375;52.486;13.424;2023-04-19T00:24:27;21.07;;;4.67;;
8675;SDS011;4375;52.486;13.424;2023-04-19T00:26:53;21.43;;;4.50;;
8675;SDS011;4375;52.486;13.424;2023-04-19T00:29:19;18.43;;;4.90;;
8675;SDS011;4375;52.486;13.424;2023-04-19T00:31:45;19.40;;;4.97;;
8675;SDS011;4375;52.486;13.424;2023-04-19T00:34:10;16.37;;;3.60;;
8675;SDS011;4375;52.486;13.424;2023-04-19T00:36:36;19.50;;;4.27;;
8675;SDS011;4375;52.486;13.424;2023-04-19T00:39:02;27.30;;;4.60;;
8675;SDS011;4375;52.486;13.424;2023-04-19T00:41:27;15.60;;;3.43;;
8675;SDS011;4375;52.486;13.424;2023-04-19T00:43:53;18.03;;;4.20;;
8675;SDS011;4375;52.486;13.424;2023-04-19T00:46:19;17.67;;;3.47;;
8675;SDS011;4375;52.486;13.424;2023-04-19T00:48:45;18.57;;;4.07;;
8675;SDS011;4375;52.486;13.424;2023-04-19T00:51:12;17.00;;;3.73;;
8675;SDS011;4375;52.486;13.424;2023-04-19T00:53:38;18.40;;;4.00;;
8675;SDS011;4375;52.486;13.424;2023-04-19T00:56:05;19.37;;;3.80;;
8675;SDS011;4375;52.486;13.424;2023-04-19T00:58:31;18.70;;;4.53;;
8675;SDS011;4375;52.486;13.424;2023-04-19T01:00:56;18.10;;;3.47;;
8675;SDS011;4375;52.486;13.424;2023-04-19T01:03:22;23.23;;;4.03;;
8675;SDS011;4375;52.486;13.424;2023-04-19T01:05:51;16.10;;;3.43;;
8675;SDS011;4375;52.486;13.424;2023-04-19T01:08:17;19.73;;;4.10;;
8675;SDS011;4375;52.486;13.424;2023-04-19T01:10:42;18.47;;;3.43;;
8675;SDS011;4375;52.486;13.424;2023-04-19T01:13:08;20.63;;;3.27;;
8675;SDS011;4375;52.486;13.424;2023-04-19T01:15:34;16.97;;;3.40;;
8675;SDS011;4375;52.486;13.424;2023-04-19T01:18:00;17.40;;;3.67;;
8675;SDS011;4375;52.486;13.424;2023-04-19T01:20:26;16.43;;;3.80;;
8675;SDS011;4375;52.486;13.424;2023-04-19T01:22:52;18.50;;;3.73;;
8675;SDS011;4375;52.486;13.424;2023-04-19T01:25:17;16.80;;;3.10;;
8675;SDS011;4375;52.486;13.424;2023-04-19T01:27:43;19.10;;;4.27;;
8675;SDS011;4375;52.486;13.424;2023-04-19T01:30:09;17.10;;;3.90;;
8675;SDS011;4375;52.486;13.424;2023-04-19T01:32:35;22.37;;;4.43;;
8675;SDS011;4375;52.486;13.424;2023-04-19T01:35:00;19.13;;;4.30;;
8675;SDS011;4375;52.486;13.424;2023-04-19T01:37:26;17.67;;;3.90;;
8675;SDS011;4375;52.486;13.424;2023-04-19T01:39:52;15.73;;;3.17;;
8675;SDS011;4375;52.486;13.424;2023-04-19T01:42:17;17.03;;;3.90;;
8675;SDS011;4375;52.486;13.424;2023-04-19T01:44:43;17.77;;;3.87;;
8675;SDS011;4375;52.486;13.424;2023-04-19T01:47:08;19.00;;;3.70;;
8675;SDS011;4375;52.486;13.424;2023-04-19T01:49:34;19.37;;;3.80;;
8675;SDS011;4375;52.486;13.424;2023-04-19T01:52:00;18.10;;;3.97;;
8675;SDS011;4375;52.486;13.424;2023-04-19T01:54:25;18.40;;;3.53;;
8675;SDS011;4375;52.486;13.424;2023-04-19T01:56:51;18.80;;;4.07;;
8675;SDS011;4375;52.486;13.424;2023-04-19T01:59:17;17.10;;;4.20;;
8675;SDS011;4375;52.486;13.424;2023-04-19T02:01:42;17.87;;;3.70;;
8675;SDS011;4375;52.486;13.424;2023-04-19T02:04:09;25.17;;;4.07;;
8675;SDS011;4375;52.486;13.424;2023-04-19T02:06:34;19.80;;;3.57;;
8675;SDS011;4375;52.486;13.424;2023-04-19T02:09:00;17.70;;;3.90;;
8675;SDS011;4375;52.486;13.424;2023-04-19T02:11:26;17.90;;;3.60;;
8675;SDS011;4375;52.486;13.424;2023-04-19T02:13:51;17.40;;;4.20;;
8675;SDS011;4375;52.486;13.424;2023-04-19T02:16:17;17.33;;;4.33;;
8675;SDS011;4375;52.486;13.424;2023-04-19T02:18:43;19.40;;;4.03;;
8675;SDS011;4375;52.486;13.424;2023-04-19T02:21:10;18.27;;;4.00;;
8675;SDS011;4375;52.486;13.424;2023-04-19T02:23:36;16.33;;;3.80;;
8675;SDS011;4375;52.486;13.424;2023-04-19T02:26:01;18.27;;;3.67;;
8675;SDS011;4375;52.486;13.424;2023-04-19T02:28:28;19.33;;;4.13;;
8675;SDS011;4375;52.486;13.424;2023-04-19T02:30:54;17.97;;;4.00;;
8675;SDS011;4375;52.486;13.424;2023-04-19T02:33:20;18.90;;;4.37;;
8675;SDS011;4375;52.486;13.424;2023-04-19T02:35:47;17.37;;;3.40;;
8675;SDS011;4375;52.486;13.424;2023-04-19T02:38:12;18.60;;;3.67;;
8675;SDS011;4375;52.486;13.424;2023-04-19T02:40:38;20.00;;;3.97;;
8675;SDS011;4375;52.486;13.424;2023-04-19T02:43:03;16.93;;;3.80;;
8675;SDS011;4375;52.486;13.424;2023-04-19T02:45:29;18.20;;;4.00;;
8675;SDS011;4375;52.486;13.424;2023-04-19T02:47:55;19.47;;;4.43;;
8675;SDS011;4375;52.486;13.424;2023-04-19T02:50:21;16.33;;;3.30;;
8675;SDS011;4375;52.486;13.424;2023-04-19T02:52:46;17.70;;;3.60;;
8675;SDS011;4375;52.486;13.424;2023-04-19T02:55:12;17.53;;;3.60;;
8675;SDS011;4375;52.486;13.424;2023-04-19T02:57:37;17.90;;;3.70;;
8675;SDS011;4375;52.486;13.424;2023-04-19T03:00:03;16.47;;;3.80;;
8675;SDS011;4375;52.486;13.424;2023-04-19T03:02:30;18.13;;;3.80;;
8675;SDS011;4375;52.486;13.424;2023-04-19T03:04:55;19.67;;;3.90;;
8675;SDS011;4375;52.486;13.424;2023-04-19T03:07:21;16.57;;;3.33;;
8675;SDS011;4375;52.486;13.424;2023-04-19T03:09:47;21.93;;;4.27;;
8675;SDS011;4375;52.486;13.424;2023-04-19T03:12:13;19.10;;;3.80;;
8675;SDS011;4375;52.486;13.424;2023-04-19T03:14:38;14.80;;;2.83;;
8675;SDS011;4375;52.486;13.424;2023-04-19T03:17:04;16.40;;;3.57;;
8675;SDS011;4375;52.486;13.424;2023-04-19T03:19:30;17.73;;;3.67;;
8675;SDS011;4375;52.486;13.424;2023-04-19T03:21:55;17.43;;;3.80;;
8675;SDS011;4375;52.486;13.424;2023-04-19T03:24:27;16.73;;;3.27;;
8675;SDS011;4375;52.486;13.424;2023-04-19T03:26:54;16.37;;;3.30;;
8675;SDS011;4375;52.486;13.424;2023-04-19T03:29:20;15.23;;;3.23;;
8675;SDS011;4375;52.486;13.424;2023-04-19T03:31:46;18.23;;;3.50;;
8675;SDS011;4375;52.486;13.424;2023-04-19T03:34:12;17.93;;;3.30;;
8675;SDS011;4375;52.486;13.424;2023-04-19T03:36:38;15.90;;;3.47;;
8675;SDS011;4375;52.486;13.424;2023-04-19T03:39:05;18.87;;;3.37;;
8675;SDS011;4375;52.486;13.424;2023-04-19T03:41:31;15.60;;;2.90;;
8675;SDS011;4375;52.486;13.424;2023-04-19T03:43:56;17.70;;;3.43;;
8675;SDS011;4375;52.486;13.424;2023-04-19T03:46:23;15.83;;;3.70;;
8675;SDS011;4375;52.486;13.424;2023-04-19T03:48:49;15.07;;;3.33;;
8675;SDS011;4375;52.486;13.424;2023-04-19T03:51:15;18.07;;;3.90;;
8675;SDS011;4375;52.486;13.424;2023-04-19T03:53:41;18.00;;;3.00;;
8675;SDS011;4375;52.486;13.424;2023-04-19T03:56:07;16.93;;;3.53;;
8675;SDS011;4375;52.486;13.424;2023-04-19T03:58:32;16.80;;;3.30;;
8675;SDS011;4375;52.486;13.424;2023-04-19T04:00:58;18.23;;;3.63;;
8675;SDS011;4375;52.486;13.424;2023-04-19T04:03:25;16.60;;;3.60;;
8675;SDS011;4375;52.486;13.424;2023-04-19T04:05:50;16.70;;;3.70;;
8675;SDS011;4375;52.486;13.424;2023-04-19T04:08:16;17.13;;;3.50;;
8675;SDS011;4375;52.486;13.424;2023-04-19T04:10:42;15.80;;;3.30;;
8675;SDS011;4375;52.486;13.424;2023-04-19T04:13:07;18.20;;;3.43;;
8675;SDS011;4375;52.486;13.424;2023-04-19T04:15:33;17.23;;;3.20;;
8675;SDS011;4375;52.486;13.424;2023-04-19T04:17:59;20.93;;;4.10;;
8675;SDS011;4375;52.486;13.424;2023-04-19T04:20:24;15.60;;;3.50;;
8675;SDS011;4375;52.486;13.424;2023-04-19T04:22:50;16.60;;;3.37;;
8675;SDS011;4375;52.486;13.424;2023-04-19T04:25:16;19.80;;;3.70;;
8675;SDS011;4375;52.486;13.424;2023-04-19T04:27:42;23.13;;;3.30;;
8675;SDS011;4375;52.486;13.424;2023-04-19T04:30:11;19.40;;;3.50;;
8675;SDS011;4375;52.486;13.424;2023-04-19T04:32:37;21.83;;;3.53;;
8675;SDS011;4375;52.486;13.424;2023-04-19T04:35:05;16.77;;;3.47;;
8675;SDS011;4375;52.486;13.424;2023-04-19T04:37:32;21.30;;;3.77;;
8675;SDS011;4375;52.486;13.424;2023-04-19T04:40:01;16.57;;;4.17;;
8675;SDS011;4375;52.486;13.424;2023-04-19T04:42:30;20.10;;;3.90;;
8675;SDS011;4375;52.486;13.424;2023-04-19T04:44:57;16.70;;;3.90;;
8675;SDS011;4375;52.486;13.424;2023-04-19T04:47:29;20.37;;;4.37;;
8675;SDS011;4375;52.486;13.424;2023-04-19T04:49:56;16.70;;;3.40;;
8675;SDS011;4375;52.486;13.424;2023-04-19T04:52:21;17.33;;;3.30;;
8675;SDS011;4375;52.486;13.424;2023-04-19T04:54:50;16.13;;;3.17;;
8675;SDS011;4375;52.486;13.424;2023-04-19T04:57:15;16.97;;;3.50;;
8675;SDS011;4375;52.486;13.424;2023-04-19T04:59:41;16.23;;;3.30;;
8675;SDS011;4375;52.486;13.424;2023-04-19T05:02:06;16.23;;;3.37;;
8675;SDS011;4375;52.486;13.424;2023-04-19T05:04:32;17.90;;;3.50;;
8675;SDS011;4375;52.486;13.424;2023-04-19T05:06:58;17.67;;;3.50;;
8675;SDS011;4375;52.486;13.424;2023-04-19T05:09:23;16.57;;;3.50;;
8675;SDS011;4375;52.486;13.424;2023-04-19T05:11:49;16.73;;;3.87;;
8675;SDS011;4375;52.486;13.424;2023-04-19T05:14:14;19.30;;;4.27;;
8675;SDS011;4375;52.486;13.424;2023-04-19T05:16:40;20.00;;;4.07;;
8675;SDS011;4375;52.486;13.424;2023-04-19T05:19:06;20.43;;;4.37;;
8675;SDS011;4375;52.486;13.424;2023-04-19T05:21:32;21.90;;;3.90;;
8675;SDS011;4375;52.486;13.424;2023-04-19T05:23:58;16.60;;;3.47;;
8675;SDS011;4375;52.486;13.424;2023-04-19T05:26:24;17.40;;;4.00;;
8675;SDS011;4375;52.486;13.424;2023-04-19T05:28:49;19.07;;;4.00;;
8675;SDS011;4375;52.486;13.424;2023-04-19T05:31:18;18.30;;;3.50;;
8675;SDS011;4375;52.486;13.424;2023-04-19T05:33:44;17.00;;;3.13;;
8675;SDS011;4375;52.486;13.424;2023-04-19T05:36:10;27.83;;;3.60;;
8675;SDS011;4375;52.486;13.424;2023-04-19T05:38:36;16.20;;;2.93;;
8675;SDS011;4375;52.486;13.424;2023-04-19T05:41:02;21.37;;;2.93;;
8675;SDS011;4375;52.486;13.424;2023-04-19T05:43:28;17.93;;;4.00;;
8675;SDS011;4375;52.486;13.424;2023-04-19T05:45:53;16.70;;;3.03;;
8675;SDS011;4375;52.486;13.424;2023-04-19T05:48:19;20.50;;;3.50;;
8675;SDS011;4375;52.486;13.424;2023-04-19T05:50:45;32.23;;;4.20;;
8675;SDS011;4375;52.486;13.424;2023-04-19T05:53:10;17.50;;;2.77;;
8675;SDS011;4375;52.486;13.424;2023-04-19T05:55:36;18.87;;;3.60;;
8675;SDS011;4375;52.486;13.424;2023-04-19T05:58:01;18.90;;;3.43;;
8675;SDS011;4375;52.486;13.424;2023-04-19T06:00:27;16.77;;;3.10;;
8675;SDS011;4375;52.486;13.424;2023-04-19T06:02:53;20.13;;;3.83;;
8675;SDS011;4375;52.486;13.424;2023-04-19T06:05:18;15.73;;;3.03;;
8675;SDS011;4375;52.486;13.424;2023-04-19T06:07:44;17.83;;;3.03;;
8675;SDS011;4375;52.486;13.424;2023-04-19T06:10:10;16.53;;;3.30;;
8675;SDS011;4375;52.486;13.424;2023-04-19T06:12:35;22.67;;;3.43;;
8675;SDS011;4375;52.486;13.424;2023-04-19T06:15:01;20.77;;;3.17;;
8675;SDS011;4375;52.486;13.424;2023-04-19T06:17:26;22.47;;;3.43;;
8675;SDS011;4375;52.486;13.424;2023-04-19T06:19:52;16.33;;;3.00;;
8675;SDS011;4375;52.486;13.424;2023-04-19T06:22:19;23.30;;;3.37;;
8675;SDS011;4375;52.486;13.424;2023-04-19T06:24:45;15.17;;;2.57;;
8675;SDS011;4375;52.486;13.424;2023-04-19T06:27:11;18.13;;;3.30;;
8675;SDS011;4375;52.486;13.424;2023-04-19T06:29:38;17.77;;;2.73;;
8675;SDS011;4375;52.486;13.424;2023-04-19T06:32:03;18.30;;;3.20;;
8675;SDS011;4375;52.486;13.424;2023-04-19T06:34:29;16.37;;;2.70;;
8675;SDS011;4375;52.486;13.424;2023-04-19T06:36:55;17.27;;;2.93;;
8675;SDS011;4375;52.486;13.424;2023-04-19T06:39:21;17.13;;;2.73;;
8675;SDS011;4375;52.486;13.424;2023-04-19T06:41:46;17.17;;;3.30;;
8675;SDS011;4375;52.486;13.424;2023-04-19T06:44:12;19.07;;;3.47;;
8675;SDS011;4375;52.486;13.424;2023-04-19T06:46:38;16.30;;;3.20;;
8675;SDS011;4375;52.486;13.424;2023-04-19T06:49:03;19.33;;;3.00;;
8675;SDS011;4375;52.486;13.424;2023-04-19T06:51:29;17.50;;;2.70;;
8675;SDS011;4375;52.486;13.424;2023-04-19T06:53:57;16.30;;;2.60;;
8675;SDS011;4375;52.486;13.424;2023-04-19T06:56:38;17.80;;;4.03;;
8675;SDS011;4375;52.486;13.424;2023-04-19T06:59:05;17.30;;;2.40;;
8675;SDS011;4375;52.486;13.424;2023-04-19T07:01:30;20.10;;;3.13;;
8675;SDS011;4375;52.486;13.424;2023-04-19T07:03:56;22.27;;;3.50;;
8675;SDS011;4375;52.486;13.424;2023-04-19T07:06:21;18.23;;;2.63;;
8675;SDS011;4375;52.486;13.424;2023-04-19T07:08:47;15.90;;;2.40;;
8675;SDS011;4375;52.486;13.424;2023-04-19T07:11:13;19.33;;;3.37;;
8675;SDS011;4375;52.486;13.424;2023-04-19T07:13:38;15.83;;;2.73;;
8675;SDS011;4375;52.486;13.424;2023-04-19T07:16:04;15.80;;;2.70;;
8675;SDS011;4375;52.486;13.424;2023-04-19T07:18:31;15.50;;;2.70;;
8675;SDS011;4375;52.486;13.424;2023-04-19T07:20:56;17.73;;;3.20;;
8675;SDS011;4375;52.486;13.424;2023-04-19T07:23:22;18.37;;;2.97;;
8675;SDS011;4375;52.486;13.424;2023-04-19T07:25:48;23.27;;;3.10;;
8675;SDS011;4375;52.486;13.424;2023-04-19T07:28:13;20.60;;;3.87;;
8675;SDS011;4375;52.486;13.424;2023-04-19T07:30:40;15.40;;;2.53;;
8675;SDS011;4375;52.486;13.424;2023-04-19T07:33:05;17.07;;;3.10;;
8675;SDS011;4375;52.486;13.424;2023-04-19T07:35:33;17.40;;;3.30;;
8675;SDS011;4375;52.486;13.424;2023-04-19T07:37:59;17.43;;;2.63;;
8675;SDS011;4375;52.486;13.424;2023-04-19T07:40:25;16.37;;;2.70;;
8675;SDS011;4375;52.486;13.424;2023-04-19T07:42:51;17.87;;;3.00;;
8675;SDS011;4375;52.486;13.424;2023-04-19T07:45:19;16.83;;;3.40;;
8675;SDS011;4375;52.486;13.424;2023-04-19T07:47:45;18.70;;;2.63;;
8675;SDS011;4375;52.486;13.424;2023-04-19T07:50:11;16.57;;;2.33;;
8675;SDS011;4375;52.486;13.424;2023-04-19T07:52:36;18.83;;;2.70;;
8675;SDS011;4375;52.486;13.424;2023-04-19T07:55:02;15.03;;;2.47;;
8675;SDS011;4375;52.486;13.424;2023-04-19T07:57:28;18.73;;;3.17;;
8675;SDS011;4375;52.486;13.424;2023-04-19T07:59:53;16.93;;;2.90;;
8675;SDS011;4375;52.486;13.424;2023-04-19T08:02:22;19.27;;;2.47;;
8675;SDS011;4375;52.486;13.424;2023-04-19T08:04:49;18.83;;;2.30;;
8675;SDS011;4375;52.486;13.424;2023-04-19T08:07:15;17.27;;;2.70;;
8675;SDS011;4375;52.486;13.424;2023-04-19T08:09:41;16.40;;;3.03;;
8675;SDS011;4375;52.486;13.424;2023-04-19T08:12:07;17.23;;;3.00;;
8675;SDS011;4375;52.486;13.424;2023-04-19T08:14:33;15.50;;;2.83;;
8675;SDS011;4375;52.486;13.424;2023-04-19T08:16:58;16.87;;;2.73;;
8675;SDS011;4375;52.486;13.424;2023-04-19T08:19:24;17.20;;;2.80;;
8675;SDS011;4375;52.486;13.424;2023-04-19T08:21:49;17.73;;;2.80;;
8675;SDS011;4375;52.486;13.424;2023-04-19T08:24:15;16.90;;;3.23;;
8675;SDS011;4375;52.486;13.424;2023-04-19T08:26:40;16.43;;;2.80;;
8675;SDS011;4375;52.486;13.424;2023-04-19T08:29:07;21.03;;;3.07;;
8675;SDS011;4375;52.486;13.424;2023-04-19T08:31:33;17.33;;;3.43;;
8675;SDS011;4375;52.486;13.424;2023-04-19T08:33:59;18.57;;;3.57;;
8675;SDS011;4375;52.486;13.424;2023-04-19T08:36:24;21.50;;;3.20;;
8675;SDS011;4375;52.486;13.424;2023-04-19T08:38:53;20.10;;;3.13;;
8675;SDS011;4375;52.486;13.424;2023-04-19T08:41:19;18.07;;;3.07;;
8675;SDS011;4375;52.486;13.424;2023-04-19T08:43:47;17.73;;;2.90;;
8675;SDS011;4375;52.486;13.424;2023-04-19T08:46:19;18.63;;;3.20;;
8675;SDS011;4375;52.486;13.424;2023-04-19T08:48:47;20.87;;;3.30;;
8675;SDS011;4375;52.486;13.424;2023-04-19T08:51:15;17.10;;;3.10;;
8675;SDS011;4375;52.486;13.424;2023-04-19T08:53:45;16.20;;;3.17;;
8675;SDS011;4375;52.486;13.424;2023-04-19T08:56:13;17.57;;;3.53;;
8675;SDS011;4375;52.486;13.424;2023-04-19T08:58:39;17.10;;;3.20;;
8675;SDS011;4375;52.486;13.424;2023-04-19T09:01:04;16.20;;;3.30;;
8675;SDS011;4375;52.486;13.424;2023-04-19T09:03:32;18.40;;;3.87;;
8675;SDS011;4375;52.486;13.424;2023-04-19T09:06:00;17.60;;;3.60;;
8675;SDS011;4375;52.486;13.424;2023-04-19T09:08:27;18.23;;;3.17;;
8675;SDS011;4375;52.486;13.424;2023-04-19T09:10:55;18.43;;;3.10;;
8675;SDS011;4375;52.486;13.424;2023-04-19T09:13:22;17.17;;;3.47;;
8675;SDS011;4375;52.486;13.424;2023-04-19T09:15:48;16.07;;;3.10;;
8675;SDS011;4375;52.486;13.424;2023-04-19T09:18:15;18.13;;;3.20;;
8675;SDS011;4375;52.486;13.424;2023-04-19T09:20:42;15.60;;;3.07;;
8675;SDS011;4375;52.486;13.424;2023-04-19T09:23:13;17.97;;;3.53;;
8675;SDS011;4375;52.486;13.424;2023-04-19T09:28:25;17.73;;;3.17;;
8675;SDS011;4375;52.486;13.424;2023-04-19T09:30:54;22.47;;;3.40;;
8675;SDS011;4375;52.486;13.424;2023-04-19T09:33:33;18.30;;;3.23;;
8675;SDS011;4375;52.486;13.424;2023-04-19T09:36:00;17.40;;;3.13;;
8675;SDS011;4375;52.486;13.424;2023-04-19T09:38:26;20.13;;;3.70;;
8675;SDS011;4375;52.486;13.424;2023-04-19T09:40:55;17.70;;;3.80;;
8675;SDS011;4375;52.486;13.424;2023-04-19T09:43:30;16.50;;;3.93;;
8675;SDS011;4375;52.486;13.424;2023-04-19T09:45:56;18.30;;;3.80;;
8675;SDS011;4375;52.486;13.424;2023-04-19T09:48:21;16.70;;;3.17;;
8675;SDS011;4375;52.486;13.424;2023-04-19T09:50:51;17.00;;;3.90;;
8675;SDS011;4375;52.486;13.424;2023-04-19T09:53:19;16.57;;;3.63;;
8675;SDS011;4375;52.486;13.424;2023-04-19T09:55:45;18.33;;;3.90;;
8675;SDS011;4375;52.486;13.424;2023-04-19T09:58:14;17.60;;;3.43;;
8675;SDS011;4375;52.486;13.424;2023-04-19T10:00:42;18.40;;;4.00;;
8675;SDS011;4375;52.486;13.424;2023-04-19T10:03:09;18.27;;;3.93;;
8675;SDS011;4375;52.486;13.424;2023-04-19T10:05:37;16.87;;;3.60;;
8675;SDS011;4375;52.486;13.424;2023-04-19T10:08:07;18.87;;;4.67;;
8675;SDS011;4375;52.486;13.424;2023-04-19T10:10:33;22.40;;;5.90;;
8675;SDS011;4375;52.486;13.424;2023-04-19T10:13:01;21.00;;;5.20;;
8675;SDS011;4375;52.486;13.424;2023-04-19T10:15:29;21.60;;;4.03;;
8675;SDS011;4375;52.486;13.424;2023-04-19T10:17:56;18.03;;;3.67;;
8675;SDS011;4375;52.486;13.424;2023-04-19T10:20:22;18.77;;;3.40;;
8675;SDS011;4375;52.486;13.424;2023-04-19T10:22:54;24.97;;;3.77;;
8675;SDS011;4375;52.486;13.424;2023-04-19T10:25:19;16.03;;;3.70;;
8675;SDS011;4375;52.486;13.424;2023-04-19T10:27:53;23.10;;;4.03;;
8675;SDS011;4375;52.486;13.424;2023-04-19T10:30:22;18.87;;;4.07;;
8675;SDS011;4375;52.486;13.424;2023-04-19T10:32:54;20.27;;;4.00;;
8675;SDS011;4375;52.486;13.424;2023-04-19T10:35:33;19.00;;;3.80;;
8675;SDS011;4375;52.486;13.424;2023-04-19T10:43:20;17.10;;;3.43;;
8675;SDS011;4375;52.486;13.424;2023-04-19T10:45:46;16.77;;;3.50;;
8675;SDS011;4375;52.486;13.424;2023-04-19T10:48:33;19.13;;;3.30;;
8675;SDS011;4375;52.486;13.424;2023-04-19T10:51:20;18.50;;;4.07;;
8675;SDS011;4375;52.486;13.424;2023-04-19T10:53:47;19.83;;;3.77;;
8675;SDS011;4375;52.486;13.424;2023-04-19T11:01:39;20.77;;;4.07;;
8675;SDS011;4375;52.486;13.424;2023-04-19T11:04:09;18.43;;;4.17;;
8675;SDS011;4375;52.486;13.424;2023-04-19T11:09:25;25.50;;;4.30;;
8675;SDS011;4375;52.486;13.424;2023-04-19T11:11:58;17.37;;;3.77;;
8675;SDS011;4375;52.486;13.424;2023-04-19T11:14:29;22.20;;;4.40;;
8675;SDS011;4375;52.486;13.424;2023-04-19T11:16:57;17.63;;;4.00;;
8675;SDS011;4375;52.486;13.424;2023-04-19T11:19:23;17.57;;;3.73;;
8675;SDS011;4375;52.486;13.424;2023-04-19T11:21:48;23.40;;;4.10;;
8675;SDS011;4375;52.486;13.424;2023-04-19T11:24:15;26.57;;;3.43;;
8675;SDS011;4375;52.486;13.424;2023-04-19T11:26:42;17.13;;;3.30;;
8675;SDS011;4375;52.486;13.424;2023-04-19T11:29:10;17.77;;;4.37;;
8675;SDS011;4375;52.486;13.424;2023-04-19T11:31:36;22.30;;;3.77;;
8675;SDS011;4375;52.486;13.424;2023-04-19T11:34:02;16.33;;;4.07;;
8675;SDS011;4375;52.486;13.424;2023-04-19T11:36:28;17.10;;;3.60;;
8675;SDS011;4375;52.486;13.424;2023-04-19T11:38:55;17.83;;;3.80;;
8675;SDS011;4375;52.486;13.424;2023-04-19T11:41:22;17.90;;;3.70;;
8675;SDS011;4375;52.486;13.424;2023-04-19T11:43:47;19.50;;;3.97;;
8675;SDS011;4375;52.486;13.424;2023-04-19T11:46:13;19.63;;;3.90;;
8675;SDS011;4375;52.486;13.424;2023-04-19T11:48:48;16.50;;;3.40;;
8675;SDS011;4375;52.486;13.424;2023-04-19T11:51:16;20.50;;;4.50;;
8675;SDS011;4375;52.486;13.424;2023-04-19T11:53:42;17.17;;;3.60;;
8675;SDS011;4375;52.486;13.424;2023-04-19T11:56:08;18.33;;;4.40;;
8675;SDS011;4375;52.486;13.424;2023-04-19T11:58:37;18.80;;;4.20;;
8675;SDS011;4375;52.486;13.424;2023-04-19T12:03:30;15.70;;;3.40;;
8675;SDS011;4375;52.486;13.424;2023-04-19T12:05:58;28.83;;;4.83;;
8675;SDS011;4375;52.486;13.424;2023-04-19T12:08:34;18.47;;;4.10;;
8675;SDS011;4375;52.486;13.424;2023-04-19T12:11:01;17.00;;;4.43;;
8675;SDS011;4375;52.486;13.424;2023-04-19T12:13:28;19.33;;;3.67;;
8675;SDS011;4375;52.486;13.424;2023-04-19T12:15:55;16.20;;;3.33;;
8675;SDS011;4375;52.486;13.424;2023-04-19T12:18:21;17.43;;;3.60;;
8675;SDS011;4375;52.486;13.424;2023-04-19T12:20:48;18.13;;;3.60;;
8675;SDS011;4375;52.486;13.424;2023-04-19T12:23:15;18.17;;;3.40;;
8675;SDS011;4375;52.486;13.424;2023-04-19T12:25:43;17.37;;;3.50;;
8675;SDS011;4375;52.486;13.424;2023-04-19T12:28:10;17.13;;;3.13;;
8675;SDS011;4375;52.486;13.424;2023-04-19T12:30:36;24.10;;;4.17;;
8675;SDS011;4375;52.486;13.424;2023-04-19T12:33:03;19.30;;;3.73;;
8675;SDS011;4375;52.486;13.424;2023-04-19T12:35:30;17.63;;;3.53;;
8675;SDS011;4375;52.486;13.424;2023-04-19T12:37:57;21.10;;;3.27;;
8675;SDS011;4375;52.486;13.424;2023-04-19T12:40:23;18.23;;;3.60;;
8675;SDS011;4375;52.486;13.424;2023-04-19T12:42:49;23.00;;;3.77;;
8675;SDS011;4375;52.486;13.424;2023-04-19T12:45:16;23.83;;;3.73;;
8675;SDS011;4375;52.486;13.424;2023-04-19T12:47:42;19.57;;;3.97;;
8675;SDS011;4375;52.486;13.424;2023-04-19T12:50:09;20.23;;;4.87;;
8675;SDS011;4375;52.486;13.424;2023-04-19T12:52:35;19.70;;;4.83;;
8675;SDS011;4375;52.486;13.424;2023-04-19T12:55:01;18.57;;;4.27;;
8675;SDS011;4375;52.486;13.424;2023-04-19T12:57:26;23.63;;;3.97;;
8675;SDS011;4375;52.486;13.424;2023-04-19T12:59:52;20.40;;;4.33;;
8675;SDS011;4375;52.486;13.424;2023-04-19T13:02:18;17.90;;;3.93;;
8675;SDS011;4375;52.486;13.424;2023-04-19T13:04:43;22.87;;;4.60;;
8675;SDS011;4375;52.486;13.424;2023-04-19T13:07:10;19.30;;;4.20;;
8675;SDS011;4375;52.486;13.424;2023-04-19T13:09:35;22.47;;;4.97;;
8675;SDS011;4375;52.486;13.424;2023-04-19T13:12:02;17.20;;;4.17;;
8675;SDS011;4375;52.486;13.424;2023-04-19T13:14:29;22.70;;;5.13;;
8675;SDS011;4375;52.486;13.424;2023-04-19T13:16:54;21.23;;;5.50;;
8675;SDS011;4375;52.486;13.424;2023-04-19T13:19:20;20.97;;;4.57;;
8675;SDS011;4375;52.486;13.424;2023-04-19T13:21:46;21.73;;;5.17;;
8675;SDS011;4375;52.486;13.424;2023-04-19T13:24:11;18.50;;;4.47;;
8675;SDS011;4375;52.486;13.424;2023-04-19T13:26:37;22.00;;;4.23;;
8675;SDS011;4375;52.486;13.424;2023-04-19T13:29:03;19.83;;;5.47;;
8675;SDS011;4375;52.486;13.424;2023-04-19T13:31:28;22.23;;;4.83;;
8675;SDS011;4375;52.486;13.424;2023-04-19T13:33:54;18.47;;;4.03;;
8675;SDS011;4375;52.486;13.424;2023-04-19T13:36:20;22.60;;;5.23;;
8675;SDS011;4375;52.486;13.424;2023-04-19T13:38:46;19.50;;;5.57;;
8675;SDS011;4375;52.486;13.424;2023-04-19T13:41:12;19.83;;;4.30;;
8675;SDS011;4375;52.486;13.424;2023-04-19T13:43:38;21.80;;;4.37;;
8675;SDS011;4375;52.486;13.424;2023-04-19T13:46:04;22.50;;;4.33;;
8675;SDS011;4375;52.486;13.424;2023-04-19T13:48:30;21.03;;;4.70;;
8675;SDS011;4375;52.486;13.424;2023-04-19T13:50:58;25.50;;;4.90;;
8675;SDS011;4375;52.486;13.424;2023-04-19T13:53:24;23.30;;;5.10;;
8675;SDS011;4375;52.486;13.424;2023-04-19T13:55:51;20.17;;;4.00;;
8675;SDS011;4375;52.486;13.424;2023-04-19T13:58:17;20.60;;;3.87;;
8675;SDS011;4375;52.486;13.424;2023-04-19T14:00:43;19.50;;;3.53;;
8675;SDS011;4375;52.486;13.424;2023-04-19T14:03:12;20.67;;;6.27;;
8675;SDS011;4375;52.486;13.424;2023-04-19T14:05:38;19.73;;;4.73;;
8675;SDS011;4375;52.486;13.424;2023-04-19T14:08:04;16.97;;;3.37;;
8675;SDS011;4375;52.486;13.424;2023-04-19T14:10:30;18.00;;;4.33;;
8675;SDS011;4375;52.486;13.424;2023-04-19T14:12:56;17.90;;;4.53;;
8675;SDS011;4375;52.486;13.424;2023-04-19T14:15:24;19.60;;;4.67;;
8675;SDS011;4375;52.486;13.424;2023-04-19T14:17:50;19.47;;;4.93;;
8675;SDS011;4375;52.486;13.424;2023-04-19T14:20:18;20.70;;;5.30;;
8675;SDS011;4375;52.486;13.424;2023-04-19T14:22:44;18.23;;;4.37;;
8675;SDS011;4375;52.486;13.424;2023-04-19T14:25:10;19.00;;;4.03;;
8675;SDS011;4375;52.486;13.424;2023-04-19T14:27:39;20.83;;;3.70;;
8675;SDS011;4375;52.486;13.424;2023-04-19T14:30:06;19.50;;;3.80;;
8675;SDS011;4375;52.486;13.424;2023-04-19T14:32:32;18.03;;;4.00;;
8675;SDS011;4375;52.486;13.424;2023-04-19T14:34:58;18.60;;;3.80;;
8675;SDS011;4375;52.486;13.424;2023-04-19T14:37:25;19.87;;;4.80;;
8675;SDS011;4375;52.486;13.424;2023-04-19T14:39:51;21.73;;;4.03;;
8675;SDS011;4375;52.486;13.424;2023-04-19T14:42:17;17.83;;;4.10;;
8675;SDS011;4375;52.486;13.424;2023-04-19T14:44:43;18.93;;;4.80;;
8675;SDS011;4375;52.486;13.424;2023-04-19T14:47:10;19.20;;;4.53;;
8675;SDS011;4375;52.486;13.424;2023-04-19T14:49:36;21.23;;;4.80;;
8675;SDS011;4375;52.486;13.424;2023-04-19T14:52:02;23.27;;;5.50;;
8675;SDS011;4375;52.486;13.424;2023-04-19T14:54:28;18.90;;;4.73;;
8675;SDS011;4375;52.486;13.424;2023-04-19T14:56:54;24.40;;;5.87;;
8675;SDS011;4375;52.486;13.424;2023-04-19T14:59:20;30.30;;;5.53;;
8675;SDS011;4375;52.486;13.424;2023-04-19T15:01:45;19.27;;;4.70;;